KELZ

Details ICAO KELZ
Name WELLSVILLE MUNI TARANTINE FLD
Region United States
Timezone America/New_York (UTC-5.0)
Plans Departing 1
Arriving 6
Stats Elevation 2,124 ft / 647 m (AMSL)
Location 42.109524° -77.989981°
Runways 1
Magnetic Variation 10.980° W
Sunrise 2017-12-15 12:34:54 UTC / 2017-12-15 07:34:54 Local
Sunset 2017-12-15 21:42:19 UTC / 2017-12-15 16:42:19 Local
Advertisement - Login to hide

Runways

ID Width Length Bearing (true) Bearing (mag) Surface Threshold Offset Overrun Length
10 100 ft / 30 m 5,288 ft / 1,612 m 89.28° 100.26° Asphalt 400 ft / 122 m 0 ft / 0 m
28 100 ft / 30 m 5,288 ft / 1,612 m 269.29° 280.27° Asphalt 0 ft / 0 m 0 ft / 0 m

Approach Navaids

Runway Type Ident Frequency Range Bearing (true) Bearing (mag) Slope Elevation
28 Localiser IELZ 110.50 MHz 18 nm / 33 km 269.27° 280.25° - 2,124 ft / 647 m (AMSL)

Map

Weather


0- 5 10 15 20 25 30 35+ Temperature / ° C

Clouds and Precipitation
Forecast for 2017-12-16 00:00 UTC. Updated an hour ago

Ground ~20,000 ft ~40,000 ft Winds

METAR

KELZ 160006Z AUTO 24012G18KT 3SM -SN BKN021 OVC026 M06/M11 A2972 RMK AO2 P0000 T10611106

TAF

Not found

Frequencies

Recorded 119.27 MHz ASOS
Unicom 123.00 MHz CTAF/UNICOM
Warning: Do not use this data for real-world aviation or navigation. No guarantee of current accuracy is given.